• Join FlightAware (Why Join?)
  • Login
  • US Flag 
05:05AM EDT


 

Airport Tracker/Info


-or-


 

Live Flight TrackerFlight Track Log ✈ CSN3281 ✈ 03-Jul-2013 ✈ ZGKL / KWL - ZBAA / PEK

Flight Track Log - Related Links

Times and Time Zones

All times are in EDT time to prevent confusion due to time zone crossing. See the CSN3281 flight status page for this flight to view local times or setup timezone preferences in your user account.

Time Position Orientation Groundspeed Altitude Reporting Facility
EDT Latitude Longitude Course Direction KTS MPH feet Rate Location/Type
08:13PM 25.3261 110.0795 19° North  Level Estimated
08:14PM 25.4341 110.1199 19° North  Level Estimated
08:15PM 25.5421 110.1603 19° North  Level Estimated
08:16PM 25.6501 110.2009 19° North  Level Estimated
08:17PM 25.7581 110.2414 19° North  Level Estimated
08:18PM 25.8660 110.2821 19° North  Level Estimated
08:19PM 25.9740 110.3229 19° North  Level Estimated
08:20PM 26.0819 110.3637 19° North  Level Estimated
08:21PM 26.1898 110.4046 19° North  Level Estimated
08:22PM 26.2977 110.4455 19° North  Level Estimated
08:23PM 26.4056 110.4866 19° North  Level Estimated
08:24PM 26.5135 110.5277 19° North  Level Estimated
08:25PM 26.6214 110.5689 19° North  Level Estimated
08:26PM 26.7293 110.6102 19° North  Level Estimated
08:27PM 26.8371 110.6515 19° North  Level Estimated
08:28PM 26.9450 110.6930 19° North  Level Estimated
08:29PM 27.0528 110.7345 19° North  Level Estimated
08:30PM 27.1606 110.7761 19° North  Level Estimated
08:31PM 27.2684 110.8177 19° North  Level Estimated
08:32PM 27.3762 110.8595 19° North  Level Estimated
08:33PM 27.4840 110.9013 19° North  Level Estimated
08:34PM 27.5918 110.9432 19° North  Level Estimated
08:35PM 27.6995 110.9852 19° North  Level Estimated
08:36PM 27.8072 111.0273 19° North  Level Estimated
08:37PM 27.9150 111.0695 19° North  Level Estimated
08:38PM 28.0227 111.1117 19° North  Level Estimated
08:39PM 28.1304 111.1541 19° North  Level Estimated
08:40PM 28.2381 111.1965 19° North  Level Estimated
08:41PM 28.3458 111.2390 19° North  Level Estimated
08:42PM 28.4534 111.2816 19° North  Level Estimated
08:43PM 28.5611 111.3243 19° North  Level Estimated
08:44PM 28.6687 111.3671 19° North  Level Estimated
08:45PM 28.7763 111.4099 19° North  Level Estimated
08:46PM 28.8839 111.4528 19° North  Level Estimated
08:47PM 28.9916 111.4959 19° North  Level Estimated
08:48PM 29.0991 111.5390 19° North  Level Estimated
08:49PM 29.2067 111.5822 19° North  Level Estimated
08:50PM 29.3143 111.6255 19° North  Level Estimated
08:51PM 29.4218 111.6689 19° North  Level Estimated
08:52PM 29.5293 111.7124 19° North  Level Estimated
08:53PM 29.6368 111.7560 19° North  Level Estimated
08:54PM 29.7443 111.7996 19° North  Level Estimated
08:55PM 29.8518 111.8434 19° North  Level Estimated
08:56PM 29.9593 111.8873 19° North  Level Estimated
08:57PM 30.0667 111.9312 19° North  Level Estimated
08:58PM 30.1742 111.9753 20° North  Level Estimated
08:59PM 30.2816 112.0194 20° North  Level Estimated
09:00PM 30.3890 112.0637 20° North  Level Estimated
09:01PM 30.4964 112.1080 20° North  Level Estimated
09:02PM 30.6038 112.1524 20° North  Level Estimated
09:03PM 30.7112 112.1970 20° North  Level Estimated
09:04PM 30.8185 112.2416 20° North  Level Estimated
09:05PM 30.9259 112.2864 20° North  Level Estimated
09:06PM 31.0332 112.3312 20° North  Level Estimated
09:07PM 31.1405 112.3761 20° North  Level Estimated
09:08PM 31.2478 112.4212 20° North  Level Estimated
09:09PM 31.3550 112.4663 20° North  Level Estimated
09:10PM 31.4623 112.5116 20° North  Level Estimated
09:11PM 31.5695 112.5569 20° North  Level Estimated
09:12PM 31.6768 112.6024 20° North  Level Estimated
09:13PM 31.7840 112.6479 20° North  Level Estimated
09:14PM 31.8912 112.6936 20° North  Level Estimated
09:15PM 31.9984 112.7394 20° North  Level Estimated
09:16PM 32.1055 112.7852 20° North  Level Estimated
09:17PM 32.2127 112.8312 20° North  Level Estimated
09:18PM 32.3198 112.8773 20° North  Level Estimated
09:19PM 32.4269 112.9235 20° North  Level Estimated
09:20PM 32.5340 112.9698 20° North  Level Estimated
09:21PM 32.6411 113.0163 20° North  Level Estimated
09:22PM 32.7481 113.0628 20° North  Level Estimated
09:23PM 32.8552 113.1094 20° North  Level Estimated
09:24PM 32.9622 113.1562 20° North  Level Estimated
09:25PM 33.0692 113.2031 20° North  Level Estimated
09:26PM 33.1762 113.2501 20° North  Level Estimated
09:27PM 33.2832 113.2972 20° North  Level Estimated
09:28PM 33.3901 113.3444 20° North  Level Estimated
09:29PM 33.4971 113.3917 20° North  Level Estimated
09:30PM 33.6040 113.4392 20° North  Level Estimated
09:31PM 33.7109 113.4867 20° North  Level Estimated
09:32PM 33.8177 113.5344 20° North  Level Estimated
09:33PM 33.9246 113.5822 20° North  Level Estimated
09:34PM 34.0314 113.6302 20° North  Level Estimated
09:35PM 34.1383 113.6782 20° North  Level Estimated
09:36PM 34.2451 113.7264 20° North  Level Estimated
09:37PM 34.3519 113.7747 20° North  Level Estimated
09:38PM 34.4586 113.8231 20° North  Level Estimated
09:39PM 34.5654 113.8716 21° North  Level Estimated
09:40PM 34.6721 113.9203 21° North  Level Estimated
09:41PM 34.7788 113.9691 21° North  Level Estimated
09:42PM 34.8855 114.0180 21° North  Level Estimated
09:43PM 34.9922 114.0670 21° North  Level Estimated
09:44PM 35.0989 114.1162 21° North  Level Estimated
09:45PM 35.2055 114.1655 21° North  Level Estimated
09:46PM 35.3121 114.2149 21° North  Level Estimated
09:47PM 35.4187 114.2645 21° North  Level Estimated
09:48PM 35.5252 114.3142 21° North  Level Estimated
09:49PM 35.6318 114.3640 21° North  Level Estimated
09:50PM 35.7383 114.4140 21° North  Level Estimated
09:51PM 35.8448 114.4641 21° North  Level Estimated
09:52PM 35.9513 114.5143 21° North  Level Estimated
09:53PM 36.0578 114.5647 21° North  Level Estimated
09:54PM 36.1642 114.6152 21° North  Level Estimated
09:55PM 36.2707 114.6658 21° North  Level Estimated
09:56PM 36.3771 114.7166 21° North  Level Estimated
09:57PM 36.4835 114.7675 21° North  Level Estimated
09:58PM 36.5898 114.8185 21° North  Level Estimated
09:59PM 36.6962 114.8697 21° North  Level Estimated
10:00PM 36.8025 114.9210 21° North  Level Estimated
10:01PM 36.9088 114.9725 21° North  Level Estimated
10:02PM 37.0150 115.0241 21° North  Level Estimated
10:03PM 37.1213 115.0759 21° North  Level Estimated
10:04PM 37.2275 115.1278 21° North  Level Estimated
10:05PM 37.3337 115.1799 21° North  Level Estimated
10:06PM 37.4399 115.2321 21° North  Level Estimated
10:07PM 37.5461 115.2844 21° North  Level Estimated
10:08PM 37.6522 115.3369 21° North  Level Estimated
10:09PM 37.7583 115.3896 21° North  Level Estimated
10:10PM 37.8644 115.4424 21° North  Level Estimated
10:11PM 37.9705 115.4953 21° North  Level Estimated
10:12PM 38.0765 115.5484 22° Northeast  Level Estimated
10:13PM 38.1825 115.6017 22° Northeast  Level Estimated
10:14PM 38.2885 115.6551 22° Northeast  Level Estimated
10:15PM 38.3945 115.7087 22° Northeast  Level Estimated
10:16PM 38.5005 115.7624 22° Northeast  Level Estimated
10:17PM 38.6064 115.8163 22° Northeast  Level Estimated
10:18PM 38.7123 115.8704 22° Northeast  Level Estimated
10:19PM 38.8181 115.9246 22° Northeast  Level Estimated
10:20PM 38.9240 115.9790 22° Northeast  Level Estimated
10:21PM 39.0298 116.0335 22° Northeast  Level Estimated
10:22PM 39.1356 116.0882 22° Northeast  Level Estimated
10:23PM 39.2414 116.1431 22° Northeast  Level Estimated
10:24PM 39.3471 116.1981 22° Northeast  Level Estimated
10:25PM 39.4529 116.2533 22° Northeast  Level Estimated
10:26PM 39.5585 116.3086 22° Northeast  Level Estimated
10:27PM 39.6642 116.3642 22° Northeast  Level Estimated
10:28PM 39.7698 116.4199 22° Northeast  Level Estimated
10:29PM 39.8755 116.4758 22° Northeast  Level Estimated
10:30PM 39.9810 116.5318 22° Northeast  Level Estimated
10:31PM 40.0801 116.5846 22° Northeast  Level Estimated
10:32PM 40.0801 116.5846 288° West  Level Estimated
10:33PM 40.0801 116.5846 288° West  Level Estimated
10:34PM 40.0801 116.5846 288° West  Level Estimated
10:35PM 40.0801 116.5846 288° West  Level Estimated
10:36PM 40.0801 116.5846 288° West  Level Estimated
10:37PM 40.0801 116.5846 288° West  Level Estimated